createdAt,value
2022-08-31T00:02:35.685Z,1.50
2022-08-31T00:05:06.844Z,1.60
2022-08-31T00:07:36.789Z,2.00
2022-08-31T00:10:16.149Z,1.88
2022-08-31T00:12:50.989Z,1.90
2022-08-31T00:15:28.000Z,1.42
2022-08-31T00:17:58.447Z,1.63
2022-08-31T00:20:34.014Z,1.92
2022-08-31T00:23:10.181Z,1.70
2022-08-31T00:25:42.878Z,2.08
2022-08-31T00:28:14.768Z,1.95
2022-08-31T00:30:45.421Z,2.47
2022-08-31T00:33:15.828Z,2.30
2022-08-31T00:35:46.309Z,2.33
2022-08-31T00:38:16.469Z,2.30
2022-08-31T00:40:47.947Z,2.10
2022-08-31T00:43:38.329Z,2.58
2022-08-31T00:46:10.250Z,2.30
2022-08-31T00:48:46.070Z,3.75
2022-08-31T00:51:18.671Z,2.60
2022-08-31T00:54:09.829Z,2.30
2022-08-31T00:57:18.110Z,3.40
2022-08-31T01:00:07.134Z,2.80
2022-08-31T01:06:14.906Z,3.17
2022-08-31T01:09:11.115Z,2.95
2022-08-31T01:22:23.833Z,3.53
2022-08-31T01:25:12.865Z,3.30
2022-08-31T01:27:43.538Z,4.00
2022-08-31T01:30:22.086Z,3.47
2022-08-31T01:32:52.162Z,3.67
2022-08-31T01:35:22.483Z,3.90
2022-08-31T01:37:54.126Z,3.97
2022-08-31T01:40:33.191Z,3.78
2022-08-31T01:43:03.501Z,4.15
2022-08-31T01:45:34.225Z,4.10
2022-08-31T01:48:04.460Z,3.40
2022-08-31T01:50:34.176Z,3.72
2022-08-31T01:53:04.352Z,4.00
2022-08-31T01:55:34.610Z,4.03
2022-08-31T01:58:05.610Z,4.05
2022-08-31T02:00:53.850Z,3.85
2022-08-31T02:03:23.983Z,3.78
2022-08-31T02:08:22.677Z,4.15
2022-08-31T02:10:54.016Z,3.75
2022-08-31T02:13:24.156Z,3.03
2022-08-31T02:15:54.849Z,3.95
2022-08-31T02:18:26.015Z,4.10
2022-08-31T02:20:57.561Z,3.55
2022-08-31T02:23:29.090Z,3.53
2022-08-31T02:25:59.525Z,4.45
2022-08-31T02:28:29.367Z,4.40
2022-08-31T02:33:28.669Z,2.95
2022-08-31T02:36:01.424Z,4.07
2022-08-31T02:38:33.984Z,3.92
2022-08-31T02:41:05.771Z,4.50
2022-08-31T02:43:37.367Z,4.13
2022-08-31T02:46:07.529Z,4.45
2022-08-31T02:48:43.826Z,4.47
2022-08-31T02:51:19.017Z,4.45
2022-08-31T02:53:50.977Z,4.65
2022-08-31T02:56:21.012Z,4.93
2022-08-31T03:01:27.651Z,3.72
2022-08-31T03:03:58.923Z,4.47
2022-08-31T03:06:30.928Z,4.43
2022-08-31T03:09:01.384Z,4.97
2022-08-31T03:11:31.433Z,4.60
2022-08-31T03:14:01.309Z,5.25
2022-08-31T03:16:31.638Z,4.07
2022-08-31T03:21:30.570Z,4.60
2022-08-31T03:24:00.576Z,3.88
2022-08-31T03:26:30.364Z,5.30
2022-08-31T03:31:47.601Z,5.35
2022-08-31T03:34:17.646Z,4.75
2022-08-31T03:36:48.394Z,4.85
2022-08-31T03:41:47.411Z,4.63
2022-08-31T03:46:49.172Z,4.10
2022-08-31T03:49:22.397Z,4.55
2022-08-31T03:52:23.464Z,4.80
2022-08-31T03:55:07.421Z,5.13
2022-08-31T03:57:37.687Z,4.63
2022-08-31T04:00:09.270Z,5.35
2022-08-31T04:02:46.545Z,4.55
2022-08-31T04:05:43.372Z,4.32
2022-08-31T04:08:17.569Z,4.30
2022-08-31T04:10:51.261Z,5.05
2022-08-31T04:13:37.989Z,4.40
2022-08-31T04:16:41.805Z,5.20
2022-08-31T04:19:38.348Z,4.22
2022-08-31T04:22:28.080Z,3.72
2022-08-31T04:25:21.589Z,4.18
2022-08-31T04:27:52.047Z,3.63
2022-08-31T04:30:23.267Z,4.88
2022-08-31T04:32:55.483Z,4.50
2022-08-31T04:35:25.925Z,4.03
2022-08-31T04:37:56.744Z,3.78
2022-08-31T04:40:26.553Z,4.72
2022-08-31T04:42:57.683Z,3.72
2022-08-31T04:47:57.123Z,4.00
2022-08-31T04:53:11.432Z,3.97
2022-08-31T04:55:44.145Z,3.88
2022-08-31T04:58:16.398Z,5.20
2022-08-31T05:00:46.520Z,4.13
2022-08-31T05:03:52.297Z,4.13
2022-08-31T05:06:25.551Z,3.88
2022-08-31T05:08:59.648Z,4.45
2022-08-31T05:11:30.950Z,4.60
2022-08-31T05:14:02.631Z,4.85
2022-08-31T05:16:33.280Z,3.97
2022-08-31T05:19:04.452Z,4.75
2022-08-31T05:21:38.237Z,4.00
2022-08-31T05:24:15.118Z,5.25
2022-08-31T05:26:53.319Z,5.30
2022-08-31T05:29:26.954Z,5.20
2022-08-31T05:32:17.248Z,4.80
2022-08-31T05:34:49.976Z,4.20
2022-08-31T05:37:21.037Z,4.75
2022-08-31T05:39:54.408Z,4.55
2022-08-31T05:42:24.184Z,5.07
2022-08-31T05:44:53.942Z,5.05
2022-08-31T05:47:24.798Z,4.90
2022-08-31T05:49:54.790Z,5.50
2022-08-31T05:52:26.230Z,4.70
2022-08-31T05:54:57.312Z,4.20
2022-08-31T05:57:27.272Z,4.55
2022-08-31T05:59:59.200Z,5.35
2022-08-31T06:02:29.988Z,5.05
2022-08-31T06:05:02.377Z,4.28
2022-08-31T06:07:32.599Z,4.10
2022-08-31T06:10:04.670Z,4.97
2022-08-31T06:12:35.960Z,5.07
2022-08-31T06:15:09.027Z,4.93
2022-08-31T06:17:39.517Z,4.75
2022-08-31T06:20:13.089Z,4.72
2022-08-31T06:22:49.062Z,4.35
2022-08-31T06:25:31.844Z,4.57
2022-08-31T06:30:32.270Z,3.30
2022-08-31T06:33:03.353Z,4.10
2022-08-31T06:35:49.148Z,4.28
2022-08-31T06:38:37.439Z,4.25
2022-08-31T06:41:28.269Z,4.68
2022-08-31T06:44:25.219Z,4.80
2022-08-31T06:47:08.463Z,4.15
2022-08-31T06:49:41.703Z,3.58
2022-08-31T06:52:11.833Z,4.32
2022-08-31T06:54:43.919Z,4.28
2022-08-31T07:00:19.954Z,4.38
2022-08-31T07:03:21.124Z,4.35
2022-08-31T07:05:56.139Z,4.28
2022-08-31T07:08:26.373Z,4.25
2022-08-31T07:10:56.160Z,3.92
2022-08-31T07:13:26.252Z,4.15
2022-08-31T07:16:06.439Z,4.32
2022-08-31T07:18:37.124Z,4.38
2022-08-31T07:21:18.238Z,4.07
2022-08-31T07:23:50.539Z,4.43
2022-08-31T07:26:26.999Z,4.38
2022-08-31T07:28:59.354Z,4.35
2022-08-31T07:31:51.560Z,4.03
2022-08-31T07:34:28.098Z,3.83
2022-08-31T07:37:36.622Z,4.10
2022-08-31T07:40:26.161Z,3.42
2022-08-31T07:42:56.998Z,4.10
2022-08-31T07:45:31.886Z,3.58
2022-08-31T07:48:05.859Z,3.38
2022-08-31T07:54:26.770Z,3.10
2022-08-31T07:57:20.093Z,3.28
2022-08-31T08:00:21.292Z,3.42
2022-08-31T08:02:56.471Z,3.25
2022-08-31T08:05:42.803Z,4.03
2022-08-31T08:08:50.497Z,3.15
2022-08-31T08:12:11.235Z,3.17
2022-08-31T08:15:11.123Z,2.42
2022-08-31T08:18:15.685Z,3.20
2022-08-31T08:20:56.720Z,2.42
2022-08-31T08:23:28.850Z,2.83
2022-08-31T08:26:21.858Z,2.20
2022-08-31T08:29:12.389Z,2.33
2022-08-31T08:31:53.469Z,2.70
2022-08-31T08:34:32.739Z,2.85
2022-08-31T08:37:08.946Z,2.85
2022-08-31T08:39:41.131Z,2.85
2022-08-31T08:42:18.750Z,2.63
2022-08-31T08:44:49.065Z,2.33
2022-08-31T08:47:30.237Z,2.63
2022-08-31T08:50:08.939Z,2.17
2022-08-31T08:52:48.111Z,1.98
2022-08-31T08:55:29.214Z,2.00
2022-08-31T08:58:00.625Z,1.83
2022-08-31T09:00:31.297Z,2.63
2022-08-31T09:03:22.663Z,2.00
2022-08-31T09:09:10.653Z,2.15
2022-08-31T09:12:15.224Z,1.52
